sensor_id;sensor_type;location;lat;lon;timestamp;temperature;humidity
42617;DHT22;28250;52.320;0.360;2022-07-15T00:02:13;13.30;99.90
42617;DHT22;28250;52.320;0.360;2022-07-15T00:04:40;13.30;99.90
42617;DHT22;28250;52.320;0.360;2022-07-15T00:07:06;13.30;99.90
42617;DHT22;28250;52.320;0.360;2022-07-15T00:09:33;13.20;99.90
42617;DHT22;28250;52.320;0.360;2022-07-15T00:12:19;13.20;99.90
42617;DHT22;28250;52.320;0.360;2022-07-15T00:14:45;13.00;99.90
42617;DHT22;28250;52.320;0.360;2022-07-15T00:17:12;13.00;99.90
42617;DHT22;28250;52.320;0.360;2022-07-15T00:19:39;12.90;99.90
42617;DHT22;28250;52.320;0.360;2022-07-15T00:22:06;12.90;99.90
42617;DHT22;28250;52.320;0.360;2022-07-15T00:24:32;13.00;99.90
42617;DHT22;28250;52.320;0.360;2022-07-15T00:26:59;12.90;99.90
42617;DHT22;28250;52.320;0.360;2022-07-15T00:29:29;12.90;99.90
42617;DHT22;28250;52.320;0.360;2022-07-15T00:31:56;12.90;99.90
42617;DHT22;28250;52.320;0.360;2022-07-15T00:34:23;12.80;99.90
42617;DHT22;28250;52.320;0.360;2022-07-15T00:36:50;12.80;99.90
42617;DHT22;28250;52.320;0.360;2022-07-15T00:39:16;12.80;99.90
42617;DHT22;28250;52.320;0.360;2022-07-15T00:41:43;12.80;99.90
42617;DHT22;28250;52.320;0.360;2022-07-15T00:44:11;12.80;99.90
42617;DHT22;28250;52.320;0.360;2022-07-15T00:46:38;12.80;99.90
42617;DHT22;28250;52.320;0.360;2022-07-15T00:49:07;12.80;99.90
42617;DHT22;28250;52.320;0.360;2022-07-15T00:51:37;12.70;99.90
42617;DHT22;28250;52.320;0.360;2022-07-15T00:54:10;12.60;99.90
42617;DHT22;28250;52.320;0.360;2022-07-15T00:56:44;12.50;99.90
42617;DHT22;28250;52.320;0.360;2022-07-15T00:59:13;12.50;99.90
42617;DHT22;28250;52.320;0.360;2022-07-15T01:01:41;12.40;99.90
42617;DHT22;28250;52.320;0.360;2022-07-15T01:04:09;12.40;99.90
42617;DHT22;28250;52.320;0.360;2022-07-15T01:06:37;12.40;99.90
42617;DHT22;28250;52.320;0.360;2022-07-15T01:09:05;12.50;99.90
42617;DHT22;28250;52.320;0.360;2022-07-15T01:11:32;12.50;99.90
42617;DHT22;28250;52.320;0.360;2022-07-15T01:14:02;12.30;99.90
42617;DHT22;28250;52.320;0.360;2022-07-15T01:16:30;12.30;99.90
42617;DHT22;28250;52.320;0.360;2022-07-15T01:18:57;12.30;99.90
42617;DHT22;28250;52.320;0.360;2022-07-15T01:21:29;12.30;99.90
42617;DHT22;28250;52.320;0.360;2022-07-15T01:23:58;12.30;99.90
42617;DHT22;28250;52.320;0.360;2022-07-15T01:26:32;12.20;99.90
42617;DHT22;28250;52.320;0.360;2022-07-15T01:28:59;12.20;99.90
42617;DHT22;28250;52.320;0.360;2022-07-15T01:31:26;12.20;99.90
42617;DHT22;28250;52.320;0.360;2022-07-15T01:33:53;12.10;99.90
42617;DHT22;28250;52.320;0.360;2022-07-15T01:36:20;12.10;99.90
42617;DHT22;28250;52.320;0.360;2022-07-15T01:38:53;12.10;99.90
42617;DHT22;28250;52.320;0.360;2022-07-15T01:41:20;12.10;99.90
42617;DHT22;28250;52.320;0.360;2022-07-15T01:43:49;12.00;99.90
42617;DHT22;28250;52.320;0.360;2022-07-15T01:46:15;11.90;99.90
42617;DHT22;28250;52.320;0.360;2022-07-15T01:48:43;11.80;99.90
42617;DHT22;28250;52.320;0.360;2022-07-15T01:51:53;11.80;99.90
42617;DHT22;28250;52.320;0.360;2022-07-15T01:54:25;11.90;99.90
42617;DHT22;28250;52.320;0.360;2022-07-15T01:56:53;11.90;99.90
42617;DHT22;28250;52.320;0.360;2022-07-15T01:59:23;11.90;99.90
42617;DHT22;28250;52.320;0.360;2022-07-15T02:01:52;11.90;99.90
42617;DHT22;28250;52.320;0.360;2022-07-15T02:04:21;11.80;99.90
42617;DHT22;28250;52.320;0.360;2022-07-15T02:06:49;11.60;99.90
42617;DHT22;28250;52.320;0.360;2022-07-15T02:09:17;11.50;99.90
42617;DHT22;28250;52.320;0.360;2022-07-15T02:11:46;11.50;99.90
42617;DHT22;28250;52.320;0.360;2022-07-15T02:14:13;11.40;99.90
42617;DHT22;28250;52.320;0.360;2022-07-15T02:16:41;11.40;99.90
42617;DHT22;28250;52.320;0.360;2022-07-15T02:19:13;11.30;99.90
42617;DHT22;28250;52.320;0.360;2022-07-15T02:21:40;11.40;99.90
42617;DHT22;28250;52.320;0.360;2022-07-15T02:24:06;11.20;99.90
42617;DHT22;28250;52.320;0.360;2022-07-15T02:26:33;11.10;99.90
42617;DHT22;28250;52.320;0.360;2022-07-15T02:29:00;11.00;99.90
42617;DHT22;28250;52.320;0.360;2022-07-15T02:31:28;11.00;99.90
42617;DHT22;28250;52.320;0.360;2022-07-15T02:33:56;11.10;99.90
42617;DHT22;28250;52.320;0.360;2022-07-15T02:36:27;11.20;99.90
42617;DHT22;28250;52.320;0.360;2022-07-15T02:38:55;11.10;99.90
42617;DHT22;28250;52.320;0.360;2022-07-15T02:41:23;11.00;99.90
42617;DHT22;28250;52.320;0.360;2022-07-15T02:43:50;10.90;99.90
42617;DHT22;28250;52.320;0.360;2022-07-15T02:46:17;11.00;99.90
42617;DHT22;28250;52.320;0.360;2022-07-15T02:48:45;11.00;99.90
42617;DHT22;28250;52.320;0.360;2022-07-15T02:51:13;10.90;99.90
42617;DHT22;28250;52.320;0.360;2022-07-15T02:53:41;10.90;99.90
42617;DHT22;28250;52.320;0.360;2022-07-15T02:56:12;10.90;99.90
42617;DHT22;28250;52.320;0.360;2022-07-15T02:58:39;10.80;99.90
42617;DHT22;28250;52.320;0.360;2022-07-15T03:01:07;10.80;99.90
42617;DHT22;28250;52.320;0.360;2022-07-15T03:03:33;10.80;99.90
42617;DHT22;28250;52.320;0.360;2022-07-15T03:06:01;10.50;99.90
42617;DHT22;28250;52.320;0.360;2022-07-15T03:08:28;10.30;99.90
42617;DHT22;28250;52.320;0.360;2022-07-15T03:10:54;10.30;99.90
42617;DHT22;28250;52.320;0.360;2022-07-15T03:13:33;10.30;99.90
42617;DHT22;28250;52.320;0.360;2022-07-15T03:16:00;10.40;99.90
42617;DHT22;28250;52.320;0.360;2022-07-15T03:18:26;10.40;99.90
42617;DHT22;28250;52.320;0.360;2022-07-15T03:20:53;10.30;99.90
42617;DHT22;28250;52.320;0.360;2022-07-15T03:23:20;10.30;99.90
42617;DHT22;28250;52.320;0.360;2022-07-15T03:25:48;10.30;99.90
42617;DHT22;28250;52.320;0.360;2022-07-15T03:28:16;10.30;99.90
42617;DHT22;28250;52.320;0.360;2022-07-15T03:30:47;10.30;99.90
42617;DHT22;28250;52.320;0.360;2022-07-15T03:33:15;10.20;99.90
42617;DHT22;28250;52.320;0.360;2022-07-15T03:35:43;10.20;99.90
42617;DHT22;28250;52.320;0.360;2022-07-15T03:38:10;10.30;99.90
42617;DHT22;28250;52.320;0.360;2022-07-15T03:40:36;10.40;99.90
42617;DHT22;28250;52.320;0.360;2022-07-15T03:43:03;10.30;99.90
42617;DHT22;28250;52.320;0.360;2022-07-15T03:45:32;10.20;99.90
42617;DHT22;28250;52.320;0.360;2022-07-15T03:47:59;10.20;99.90
42617;DHT22;28250;52.320;0.360;2022-07-15T03:50:25;10.30;99.90
42617;DHT22;28250;52.320;0.360;2022-07-15T03:52:52;10.30;99.90
42617;DHT22;28250;52.320;0.360;2022-07-15T03:55:20;10.30;99.90
42617;DHT22;28250;52.320;0.360;2022-07-15T03:57:47;10.40;99.90
42617;DHT22;28250;52.320;0.360;2022-07-15T04:00:14;10.40;99.90
42617;DHT22;28250;52.320;0.360;2022-07-15T04:02:41;10.40;99.90
42617;DHT22;28250;52.320;0.360;2022-07-15T04:05:08;10.40;99.90
42617;DHT22;28250;52.320;0.360;2022-07-15T04:07:35;10.40;99.90
42617;DHT22;28250;52.320;0.360;2022-07-15T04:10:03;10.40;99.90
42617;DHT22;28250;52.320;0.360;2022-07-15T04:12:31;10.30;99.90
42617;DHT22;28250;52.320;0.360;2022-07-15T04:14:57;10.30;99.90
42617;DHT22;28250;52.320;0.360;2022-07-15T04:17:24;10.40;99.90
42617;DHT22;28250;52.320;0.360;2022-07-15T04:19:51;10.40;99.90
42617;DHT22;28250;52.320;0.360;2022-07-15T04:22:17;10.40;99.90
42617;DHT22;28250;52.320;0.360;2022-07-15T04:24:48;10.50;99.90
42617;DHT22;28250;52.320;0.360;2022-07-15T04:27:17;10.50;99.90
42617;DHT22;28250;52.320;0.360;2022-07-15T04:29:44;10.50;99.90
42617;DHT22;28250;52.320;0.360;2022-07-15T04:32:13;10.50;99.90
42617;DHT22;28250;52.320;0.360;2022-07-15T04:34:44;10.60;99.90
42617;DHT22;28250;52.320;0.360;2022-07-15T04:37:11;10.60;99.90
42617;DHT22;28250;52.320;0.360;2022-07-15T04:39:39;10.60;99.90
42617;DHT22;28250;52.320;0.360;2022-07-15T04:42:06;10.50;99.90
42617;DHT22;28250;52.320;0.360;2022-07-15T04:44:36;10.30;99.90
42617;DHT22;28250;52.320;0.360;2022-07-15T04:47:05;10.30;99.90
42617;DHT22;28250;52.320;0.360;2022-07-15T04:49:38;10.30;99.90
42617;DHT22;28250;52.320;0.360;2022-07-15T04:52:23;10.40;99.90
42617;DHT22;28250;52.320;0.360;2022-07-15T04:54:51;10.40;99.90
42617;DHT22;28250;52.320;0.360;2022-07-15T04:57:20;10.50;99.90
42617;DHT22;28250;52.320;0.360;2022-07-15T04:59:47;10.50;99.90
42617;DHT22;28250;52.320;0.360;2022-07-15T05:02:17;10.60;99.90
42617;DHT22;28250;52.320;0.360;2022-07-15T05:04:47;10.70;99.90
42617;DHT22;28250;52.320;0.360;2022-07-15T05:07:15;10.80;99.90
42617;DHT22;28250;52.320;0.360;2022-07-15T05:09:43;10.90;99.90
42617;DHT22;28250;52.320;0.360;2022-07-15T05:12:11;10.80;99.90
42617;DHT22;28250;52.320;0.360;2022-07-15T05:14:45;10.90;99.90
42617;DHT22;28250;52.320;0.360;2022-07-15T05:17:11;11.10;99.90
42617;DHT22;28250;52.320;0.360;2022-07-15T05:19:38;11.20;99.90
42617;DHT22;28250;52.320;0.360;2022-07-15T05:22:04;11.40;99.90
42617;DHT22;28250;52.320;0.360;2022-07-15T05:24:32;11.50;99.90
42617;DHT22;28250;52.320;0.360;2022-07-15T05:27:02;11.60;99.90
42617;DHT22;28250;52.320;0.360;2022-07-15T05:29:31;11.70;99.90
42617;DHT22;28250;52.320;0.360;2022-07-15T05:31:58;11.90;99.90
42617;DHT22;28250;52.320;0.360;2022-07-15T05:34:25;12.00;99.90
42617;DHT22;28250;52.320;0.360;2022-07-15T05:36:53;12.00;99.90
42617;DHT22;28250;52.320;0.360;2022-07-15T05:39:22;12.10;99.90
42617;DHT22;28250;52.320;0.360;2022-07-15T05:41:51;12.30;99.90
42617;DHT22;28250;52.320;0.360;2022-07-15T05:44:18;12.40;99.90
42617;DHT22;28250;52.320;0.360;2022-07-15T05:46:48;12.60;99.90
42617;DHT22;28250;52.320;0.360;2022-07-15T05:49:17;12.80;99.90
42617;DHT22;28250;52.320;0.360;2022-07-15T05:51:44;13.10;99.90
42617;DHT22;28250;52.320;0.360;2022-07-15T05:54:11;13.20;99.90
42617;DHT22;28250;52.320;0.360;2022-07-15T05:56:41;13.50;99.90
42617;DHT22;28250;52.320;0.360;2022-07-15T05:59:10;13.80;99.90
42617;DHT22;28250;52.320;0.360;2022-07-15T06:01:36;13.90;99.90
42617;DHT22;28250;52.320;0.360;2022-07-15T06:04:03;13.80;99.90
42617;DHT22;28250;52.320;0.360;2022-07-15T06:06:30;13.80;99.90
42617;DHT22;28250;52.320;0.360;2022-07-15T06:09:00;13.90;99.90
42617;DHT22;28250;52.320;0.360;2022-07-15T06:11:27;14.00;99.90
42617;DHT22;28250;52.320;0.360;2022-07-15T06:13:55;14.20;99.90
42617;DHT22;28250;52.320;0.360;2022-07-15T06:16:22;14.40;99.90
42617;DHT22;28250;52.320;0.360;2022-07-15T06:18:49;14.40;99.90
42617;DHT22;28250;52.320;0.360;2022-07-15T06:21:17;14.50;99.90
42617;DHT22;28250;52.320;0.360;2022-07-15T06:23:44;15.50;99.90
42617;DHT22;28250;52.320;0.360;2022-07-15T06:26:11;16.30;99.90
42617;DHT22;28250;52.320;0.360;2022-07-15T06:28:38;16.60;99.90
42617;DHT22;28250;52.320;0.360;2022-07-15T06:31:04;15.90;99.90
42617;DHT22;28250;52.320;0.360;2022-07-15T06:33:32;16.90;99.90
42617;DHT22;28250;52.320;0.360;2022-07-15T06:35:59;17.20;99.90
42617;DHT22;28250;52.320;0.360;2022-07-15T06:38:26;18.40;99.90
42617;DHT22;28250;52.320;0.360;2022-07-15T06:40:54;19.40;99.90
42617;DHT22;28250;52.320;0.360;2022-07-15T06:43:21;19.70;99.90
42617;DHT22;28250;52.320;0.360;2022-07-15T06:46:07;20.10;99.90
42617;DHT22;28250;52.320;0.360;2022-07-15T06:48:35;21.70;99.90
42617;DHT22;28250;52.320;0.360;2022-07-15T06:51:01;21.20;99.90
42617;DHT22;28250;52.320;0.360;2022-07-15T06:53:28;21.30;99.90
42617;DHT22;28250;52.320;0.360;2022-07-15T06:55:55;22.50;99.90
42617;DHT22;28250;52.320;0.360;2022-07-15T06:58:21;20.90;99.90
42617;DHT22;28250;52.320;0.360;2022-07-15T07:00:49;21.40;99.90
42617;DHT22;28250;52.320;0.360;2022-07-15T07:03:16;21.00;99.90
42617;DHT22;28250;52.320;0.360;2022-07-15T07:05:46;20.50;99.90
42617;DHT22;28250;52.320;0.360;2022-07-15T07:08:13;21.90;99.90
42617;DHT22;28250;52.320;0.360;2022-07-15T07:10:40;22.80;99.90
42617;DHT22;28250;52.320;0.360;2022-07-15T07:13:08;23.00;99.90
42617;DHT22;28250;52.320;0.360;2022-07-15T07:15:35;24.50;99.90
42617;DHT22;28250;52.320;0.360;2022-07-15T07:18:02;23.40;99.90
42617;DHT22;28250;52.320;0.360;2022-07-15T07:20:29;21.60;99.90
42617;DHT22;28250;52.320;0.360;2022-07-15T07:22:56;21.30;99.90
42617;DHT22;28250;52.320;0.360;2022-07-15T07:25:24;23.10;99.90
42617;DHT22;28250;52.320;0.360;2022-07-15T07:27:50;22.40;99.90
42617;DHT22;28250;52.320;0.360;2022-07-15T07:30:17;22.80;99.90
42617;DHT22;28250;52.320;0.360;2022-07-15T07:32:44;22.90;99.90
42617;DHT22;28250;52.320;0.360;2022-07-15T07:35:11;22.60;99.90
42617;DHT22;28250;52.320;0.360;2022-07-15T07:37:38;22.70;99.90
42617;DHT22;28250;52.320;0.360;2022-07-15T07:40:05;23.80;99.90
42617;DHT22;28250;52.320;0.360;2022-07-15T07:42:33;25.30;99.90
42617;DHT22;28250;52.320;0.360;2022-07-15T07:45:01;24.50;99.90
42617;DHT22;28250;52.320;0.360;2022-07-15T07:47:28;24.30;99.90
42617;DHT22;28250;52.320;0.360;2022-07-15T07:49:54;23.90;99.90
42617;DHT22;28250;52.320;0.360;2022-07-15T07:52:22;22.50;99.90
42617;DHT22;28250;52.320;0.360;2022-07-15T07:54:50;23.40;99.90
42617;DHT22;28250;52.320;0.360;2022-07-15T07:57:17;21.90;99.90
42617;DHT22;28250;52.320;0.360;2022-07-15T07:59:43;21.80;99.90
42617;DHT22;28250;52.320;0.360;2022-07-15T08:02:10;22.30;99.90
42617;DHT22;28250;52.320;0.360;2022-07-15T08:04:37;21.30;99.90
42617;DHT22;28250;52.320;0.360;2022-07-15T08:07:04;21.40;99.90
42617;DHT22;28250;52.320;0.360;2022-07-15T08:09:32;20.90;99.90
42617;DHT22;28250;52.320;0.360;2022-07-15T08:11:59;21.60;99.90
42617;DHT22;28250;52.320;0.360;2022-07-15T08:14:25;23.40;99.90
42617;DHT22;28250;52.320;0.360;2022-07-15T08:16:53;23.00;99.90
42617;DHT22;28250;52.320;0.360;2022-07-15T08:19:20;22.20;99.90
42617;DHT22;28250;52.320;0.360;2022-07-15T08:21:47;21.70;99.90
42617;DHT22;28250;52.320;0.360;2022-07-15T08:24:13;21.30;99.90
42617;DHT22;28250;52.320;0.360;2022-07-15T08:26:40;21.70;99.90
42617;DHT22;28250;52.320;0.360;2022-07-15T08:29:07;21.30;99.90
42617;DHT22;28250;52.320;0.360;2022-07-15T08:31:35;21.80;99.90
42617;DHT22;28250;52.320;0.360;2022-07-15T08:34:04;22.80;99.90
42617;DHT22;28250;52.320;0.360;2022-07-15T08:36:31;23.00;99.90
42617;DHT22;28250;52.320;0.360;2022-07-15T08:38:58;22.40;99.90
42617;DHT22;28250;52.320;0.360;2022-07-15T08:41:25;22.70;99.90
42617;DHT22;28250;52.320;0.360;2022-07-15T08:43:51;22.50;99.90
42617;DHT22;28250;52.320;0.360;2022-07-15T08:46:19;22.00;99.90
42617;DHT22;28250;52.320;0.360;2022-07-15T08:48:50;21.80;99.90
42617;DHT22;28250;52.320;0.360;2022-07-15T08:51:22;21.30;99.90
42617;DHT22;28250;52.320;0.360;2022-07-15T08:53:50;21.30;99.90
42617;DHT22;28250;52.320;0.360;2022-07-15T08:56:19;21.30;99.90
42617;DHT22;28250;52.320;0.360;2022-07-15T08:58:46;21.10;99.90
42617;DHT22;28250;52.320;0.360;2022-07-15T09:01:13;21.50;99.90
42617;DHT22;28250;52.320;0.360;2022-07-15T09:03:39;21.40;99.90
42617;DHT22;28250;52.320;0.360;2022-07-15T09:06:07;21.30;99.90
42617;DHT22;28250;52.320;0.360;2022-07-15T09:08:34;21.50;99.90
42617;DHT22;28250;52.320;0.360;2022-07-15T09:11:01;21.50;99.90
42617;DHT22;28250;52.320;0.360;2022-07-15T09:13:37;21.80;99.90
42617;DHT22;28250;52.320;0.360;2022-07-15T09:16:08;22.40;99.90
42617;DHT22;28250;52.320;0.360;2022-07-15T09:18:39;22.00;99.90
42617;DHT22;28250;52.320;0.360;2022-07-15T09:21:26;22.30;99.90
42617;DHT22;28250;52.320;0.360;2022-07-15T09:23:54;21.90;99.90
42617;DHT22;28250;52.320;0.360;2022-07-15T09:26:28;21.90;99.90
42617;DHT22;28250;52.320;0.360;2022-07-15T09:28:58;22.20;99.90
42617;DHT22;28250;52.320;0.360;2022-07-15T09:31:29;22.10;99.90
42617;DHT22;28250;52.320;0.360;2022-07-15T09:34:15;22.40;99.90
42617;DHT22;28250;52.320;0.360;2022-07-15T09:36:45;22.90;99.90
42617;DHT22;28250;52.320;0.360;2022-07-15T09:39:18;23.40;99.90
42617;DHT22;28250;52.320;0.360;2022-07-15T09:41:46;23.90;99.90
42617;DHT22;28250;52.320;0.360;2022-07-15T09:44:15;23.20;99.90
42617;DHT22;28250;52.320;0.360;2022-07-15T09:46:46;22.70;99.90
42617;DHT22;28250;52.320;0.360;2022-07-15T09:49:30;22.90;99.90
42617;DHT22;28250;52.320;0.360;2022-07-15T09:56:57;23.20;99.90
42617;DHT22;28250;52.320;0.360;2022-07-15T09:59:25;24.30;99.90
42617;DHT22;28250;52.320;0.360;2022-07-15T10:01:53;24.40;99.90
42617;DHT22;28250;52.320;0.360;2022-07-15T10:04:22;24.30;99.40
42617;DHT22;28250;52.320;0.360;2022-07-15T10:06:55;24.40;99.90
42617;DHT22;28250;52.320;0.360;2022-07-15T10:09:25;25.10;99.60
42617;DHT22;28250;52.320;0.360;2022-07-15T10:11:59;24.50;99.80
42617;DHT22;28250;52.320;0.360;2022-07-15T10:20:47;24.90;98.70
42617;DHT22;28250;52.320;0.360;2022-07-15T10:28:52;24.80;97.30
42617;DHT22;28250;52.320;0.360;2022-07-15T10:31:22;25.40;99.00
42617;DHT22;28250;52.320;0.360;2022-07-15T10:39:13;26.70;96.70
42617;DHT22;28250;52.320;0.360;2022-07-15T10:42:00;25.30;95.50
42617;DHT22;28250;52.320;0.360;2022-07-15T10:44:32;24.40;96.40
42617;DHT22;28250;52.320;0.360;2022-07-15T10:47:19;25.10;98.60
42617;DHT22;28250;52.320;0.360;2022-07-15T10:49:48;26.20;99.10
42617;DHT22;28250;52.320;0.360;2022-07-15T10:55:03;25.60;98.10
42617;DHT22;28250;52.320;0.360;2022-07-15T10:57:50;25.60;96.80
42617;DHT22;28250;52.320;0.360;2022-07-15T11:05:59;25.60;98.10
42617;DHT22;28250;52.320;0.360;2022-07-15T11:13:47;24.90;96.60
42617;DHT22;28250;52.320;0.360;2022-07-15T11:16:18;26.20;94.90
42617;DHT22;28250;52.320;0.360;2022-07-15T11:21:13;25.50;95.40
42617;DHT22;28250;52.320;0.360;2022-07-15T11:23:43;24.90;96.40
42617;DHT22;28250;52.320;0.360;2022-07-15T11:26:11;24.60;97.60
42617;DHT22;28250;52.320;0.360;2022-07-15T11:28:38;24.90;96.70
42617;DHT22;28250;52.320;0.360;2022-07-15T11:31:04;26.20;99.40
42617;DHT22;28250;52.320;0.360;2022-07-15T11:33:31;26.40;95.10
42617;DHT22;28250;52.320;0.360;2022-07-15T11:36:00;25.30;95.30
42617;DHT22;28250;52.320;0.360;2022-07-15T11:38:38;24.80;95.00
42617;DHT22;28250;52.320;0.360;2022-07-15T11:41:06;24.80;97.40
42617;DHT22;28250;52.320;0.360;2022-07-15T11:43:58;25.70;95.90
42617;DHT22;28250;52.320;0.360;2022-07-15T11:46:51;26.10;96.70
42617;DHT22;28250;52.320;0.360;2022-07-15T11:49:43;26.20;97.20
42617;DHT22;28250;52.320;0.360;2022-07-15T11:52:22;26.10;95.60
42617;DHT22;28250;52.320;0.360;2022-07-15T11:54:50;25.70;95.00
42617;DHT22;28250;52.320;0.360;2022-07-15T11:57:17;24.30;95.20
42617;DHT22;28250;52.320;0.360;2022-07-15T12:00:09;24.50;96.40
42617;DHT22;28250;52.320;0.360;2022-07-15T12:02:38;24.20;95.90
42617;DHT22;28250;52.320;0.360;2022-07-15T12:05:07;24.30;95.60
42617;DHT22;28250;52.320;0.360;2022-07-15T12:07:52;24.50;96.40
42617;DHT22;28250;52.320;0.360;2022-07-15T12:10:33;24.60;96.00
42617;DHT22;28250;52.320;0.360;2022-07-15T12:13:01;24.20;95.50
42617;DHT22;28250;52.320;0.360;2022-07-15T12:15:29;23.50;96.10
42617;DHT22;28250;52.320;0.360;2022-07-15T12:17:57;23.40;96.30
42617;DHT22;28250;52.320;0.360;2022-07-15T12:20:25;23.50;97.30
42617;DHT22;28250;52.320;0.360;2022-07-15T12:23:13;23.20;96.70
42617;DHT22;28250;52.320;0.360;2022-07-15T12:25:40;23.10;96.80
42617;DHT22;28250;52.320;0.360;2022-07-15T12:28:07;23.00;97.10
42617;DHT22;28250;52.320;0.360;2022-07-15T12:30:37;23.10;97.10
42617;DHT22;28250;52.320;0.360;2022-07-15T12:33:23;23.20;97.60
42617;DHT22;28250;52.320;0.360;2022-07-15T12:35:49;23.00;97.20
42617;DHT22;28250;52.320;0.360;2022-07-15T12:38:26;22.80;97.10
42617;DHT22;28250;52.320;0.360;2022-07-15T12:41:05;22.80;97.30
42617;DHT22;28250;52.320;0.360;2022-07-15T12:43:54;22.70;97.10
42617;DHT22;28250;52.320;0.360;2022-07-15T12:52:15;22.60;97.20
42617;DHT22;28250;52.320;0.360;2022-07-15T12:54:43;22.70;97.40
42617;DHT22;28250;52.320;0.360;2022-07-15T12:57:32;22.50;97.60
42617;DHT22;28250;52.320;0.360;2022-07-15T13:00:06;22.80;97.40
42617;DHT22;28250;52.320;0.360;2022-07-15T13:05:31;22.80;97.40
42617;DHT22;28250;52.320;0.360;2022-07-15T13:08:00;22.70;97.40
42617;DHT22;28250;52.320;0.360;2022-07-15T13:10:28;22.60;97.50
42617;DHT22;28250;52.320;0.360;2022-07-15T13:12:55;22.80;97.40
42617;DHT22;28250;52.320;0.360;2022-07-15T13:15:22;22.80;97.60
42617;DHT22;28250;52.320;0.360;2022-07-15T13:17:49;22.90;97.50
42617;DHT22;28250;52.320;0.360;2022-07-15T13:20:16;22.90;97.10
42617;DHT22;28250;52.320;0.360;2022-07-15T13:22:42;22.60;97.50
42617;DHT22;28250;52.320;0.360;2022-07-15T13:25:09;22.80;97.40
42617;DHT22;28250;52.320;0.360;2022-07-15T13:27:36;23.20;97.40
42617;DHT22;28250;52.320;0.360;2022-07-15T13:30:03;23.70;97.50
42617;DHT22;28250;52.320;0.360;2022-07-15T13:32:31;23.60;97.70
42617;DHT22;28250;52.320;0.360;2022-07-15T13:34:57;23.80;97.10
42617;DHT22;28250;52.320;0.360;2022-07-15T13:37:24;23.90;96.50
42617;DHT22;28250;52.320;0.360;2022-07-15T13:39:51;24.10;96.80
42617;DHT22;28250;52.320;0.360;2022-07-15T13:42:18;24.00;96.60
42617;DHT22;28250;52.320;0.360;2022-07-15T13:44:45;23.70;96.40
42617;DHT22;28250;52.320;0.360;2022-07-15T13:47:12;23.50;96.80
42617;DHT22;28250;52.320;0.360;2022-07-15T13:49:38;23.80;96.80
42617;DHT22;28250;52.320;0.360;2022-07-15T13:52:23;23.90;97.20
42617;DHT22;28250;52.320;0.360;2022-07-15T13:54:50;23.70;96.60
42617;DHT22;28250;52.320;0.360;2022-07-15T13:57:16;24.30;96.30
42617;DHT22;28250;52.320;0.360;2022-07-15T13:59:43;24.50;96.00
42617;DHT22;28250;52.320;0.360;2022-07-15T14:02:10;24.40;95.60
42617;DHT22;28250;52.320;0.360;2022-07-15T14:04:36;24.70;95.90
42617;DHT22;28250;52.320;0.360;2022-07-15T14:07:03;25.60;95.80
42617;DHT22;28250;52.320;0.360;2022-07-15T14:09:30;25.90;95.50
42617;DHT22;28250;52.320;0.360;2022-07-15T14:11:59;26.60;94.70
42617;DHT22;28250;52.320;0.360;2022-07-15T14:14:26;26.20;94.50
42617;DHT22;28250;52.320;0.360;2022-07-15T14:16:54;26.00;94.50
42617;DHT22;28250;52.320;0.360;2022-07-15T14:19:20;26.30;94.40
42617;DHT22;28250;52.320;0.360;2022-07-15T14:21:47;25.80;93.70
42617;DHT22;28250;52.320;0.360;2022-07-15T14:24:13;25.70;93.70
42617;DHT22;28250;52.320;0.360;2022-07-15T14:26:40;25.50;94.10
42617;DHT22;28250;52.320;0.360;2022-07-15T14:29:07;25.90;94.30
42617;DHT22;28250;52.320;0.360;2022-07-15T14:31:33;26.10;94.30
42617;DHT22;28250;52.320;0.360;2022-07-15T14:34:00;26.20;93.80
42617;DHT22;28250;52.320;0.360;2022-07-15T14:36:26;26.30;93.50
42617;DHT22;28250;52.320;0.360;2022-07-15T14:38:53;26.30;93.80
42617;DHT22;28250;52.320;0.360;2022-07-15T14:41:20;26.90;93.30
42617;DHT22;28250;52.320;0.360;2022-07-15T14:43:46;26.30;93.40
42617;DHT22;28250;52.320;0.360;2022-07-15T14:46:13;26.70;93.60
42617;DHT22;28250;52.320;0.360;2022-07-15T14:48:40;25.90;93.90
42617;DHT22;28250;52.320;0.360;2022-07-15T14:51:06;26.70;93.90
42617;DHT22;28250;52.320;0.360;2022-07-15T14:53:33;26.20;93.20
42617;DHT22;28250;52.320;0.360;2022-07-15T14:55:59;26.00;93.90
42617;DHT22;28250;52.320;0.360;2022-07-15T14:58:26;25.60;93.60
42617;DHT22;28250;52.320;0.360;2022-07-15T15:00:53;25.60;94.20
42617;DHT22;28250;52.320;0.360;2022-07-15T15:03:19;26.20;94.00
42617;DHT22;28250;52.320;0.360;2022-07-15T15:05:46;26.30;92.80
42617;DHT22;28250;52.320;0.360;2022-07-15T15:08:12;26.80;93.50
42617;DHT22;28250;52.320;0.360;2022-07-15T15:10:39;26.70;93.40
42617;DHT22;28250;52.320;0.360;2022-07-15T15:13:05;26.00;93.40
42617;DHT22;28250;52.320;0.360;2022-07-15T15:15:32;25.90;93.40
42617;DHT22;28250;52.320;0.360;2022-07-15T15:18:00;25.50;94.10
42617;DHT22;28250;52.320;0.360;2022-07-15T15:20:27;26.20;93.70
42617;DHT22;28250;52.320;0.360;2022-07-15T15:22:54;25.70;93.40
42617;DHT22;28250;52.320;0.360;2022-07-15T15:25:22;24.70;93.90
42617;DHT22;28250;52.320;0.360;2022-07-15T15:28:07;24.90;94.00
42617;DHT22;28250;52.320;0.360;2022-07-15T15:30:34;26.00;94.90
42617;DHT22;28250;52.320;0.360;2022-07-15T15:33:00;26.70;93.10
42617;DHT22;28250;52.320;0.360;2022-07-15T15:35:27;25.60;93.30
42617;DHT22;28250;52.320;0.360;2022-07-15T15:37:54;25.40;93.80
42617;DHT22;28250;52.320;0.360;2022-07-15T15:40:20;24.80;93.90
42617;DHT22;28250;52.320;0.360;2022-07-15T15:42:47;24.80;94.10
42617;DHT22;28250;52.320;0.360;2022-07-15T15:45:14;25.00;94.00
42617;DHT22;28250;52.320;0.360;2022-07-15T15:47:41;25.20;94.20
42617;DHT22;28250;52.320;0.360;2022-07-15T15:50:07;24.90;93.80
42617;DHT22;28250;52.320;0.360;2022-07-15T15:52:34;25.20;94.00
42617;DHT22;28250;52.320;0.360;2022-07-15T15:55:01;25.10;94.30
42617;DHT22;28250;52.320;0.360;2022-07-15T15:57:27;25.20;93.90
42617;DHT22;28250;52.320;0.360;2022-07-15T15:59:54;25.40;93.70
42617;DHT22;28250;52.320;0.360;2022-07-15T16:02:21;25.30;93.60
42617;DHT22;28250;52.320;0.360;2022-07-15T16:04:47;25.00;94.00
42617;DHT22;28250;52.320;0.360;2022-07-15T16:07:14;24.70;94.30
42617;DHT22;28250;52.320;0.360;2022-07-15T16:09:40;25.00;94.30
42617;DHT22;28250;52.320;0.360;2022-07-15T16:12:07;24.90;94.40
42617;DHT22;28250;52.320;0.360;2022-07-15T16:14:33;25.00;94.40
42617;DHT22;28250;52.320;0.360;2022-07-15T16:17:00;24.70;94.40
42617;DHT22;28250;52.320;0.360;2022-07-15T16:19:27;24.90;94.60
42617;DHT22;28250;52.320;0.360;2022-07-15T16:21:53;25.20;94.30
42617;DHT22;28250;52.320;0.360;2022-07-15T16:24:38;25.30;94.10
42617;DHT22;28250;52.320;0.360;2022-07-15T16:27:06;25.40;93.80
42617;DHT22;28250;52.320;0.360;2022-07-15T16:29:33;24.60;94.70